sensor_id;sensor_type;location;lat;lon;timestamp;temperature;humidity
7494;DHT22;3788;49.902;8.590;2023-12-29T00:00:06;9.50;99.90
7494;DHT22;3788;49.902;8.590;2023-12-29T00:02:34;9.60;99.90
7494;DHT22;3788;49.902;8.590;2023-12-29T00:05:02;9.60;99.90
7494;DHT22;3788;49.902;8.590;2023-12-29T00:07:29;9.60;99.90
7494;DHT22;3788;49.902;8.590;2023-12-29T00:09:55;9.60;99.90
7494;DHT22;3788;49.902;8.590;2023-12-29T00:12:22;9.60;99.90
7494;DHT22;3788;49.902;8.590;2023-12-29T00:14:49;9.70;99.90
7494;DHT22;3788;49.902;8.590;2023-12-29T00:17:16;9.70;99.90
7494;DHT22;3788;49.902;8.590;2023-12-29T00:19:42;9.70;99.90
7494;DHT22;3788;49.902;8.590;2023-12-29T00:22:10;9.70;99.90
7494;DHT22;3788;49.902;8.590;2023-12-29T00:24:37;9.70;99.90
7494;DHT22;3788;49.902;8.590;2023-12-29T00:27:05;9.60;99.90
7494;DHT22;3788;49.902;8.590;2023-12-29T00:29:31;9.60;99.90
7494;DHT22;3788;49.902;8.590;2023-12-29T00:31:58;9.60;99.90
7494;DHT22;3788;49.902;8.590;2023-12-29T00:34:26;9.60;99.90
7494;DHT22;3788;49.902;8.590;2023-12-29T00:36:52;9.70;99.90
7494;DHT22;3788;49.902;8.590;2023-12-29T00:39:20;9.60;99.90
7494;DHT22;3788;49.902;8.590;2023-12-29T00:41:54;9.70;99.90
7494;DHT22;3788;49.902;8.590;2023-12-29T00:44:21;9.70;99.90
7494;DHT22;3788;49.902;8.590;2023-12-29T00:46:48;9.60;99.90
7494;DHT22;3788;49.902;8.590;2023-12-29T00:49:14;9.60;99.90
7494;DHT22;3788;49.902;8.590;2023-12-29T00:51:41;9.60;99.90
7494;DHT22;3788;49.902;8.590;2023-12-29T00:54:08;9.60;99.90
7494;DHT22;3788;49.902;8.590;2023-12-29T00:56:36;9.60;99.90
7494;DHT22;3788;49.902;8.590;2023-12-29T00:59:02;9.60;99.90
7494;DHT22;3788;49.902;8.590;2023-12-29T01:01:33;9.60;99.90
7494;DHT22;3788;49.902;8.590;2023-12-29T01:04:00;9.50;99.90
7494;DHT22;3788;49.902;8.590;2023-12-29T01:06:27;9.50;99.90
7494;DHT22;3788;49.902;8.590;2023-12-29T01:08:54;9.50;99.90
7494;DHT22;3788;49.902;8.590;2023-12-29T01:11:20;9.50;99.90
7494;DHT22;3788;49.902;8.590;2023-12-29T01:13:48;9.50;99.90
7494;DHT22;3788;49.902;8.590;2023-12-29T01:16:15;9.50;99.90
7494;DHT22;3788;49.902;8.590;2023-12-29T01:18:42;9.50;99.90
7494;DHT22;3788;49.902;8.590;2023-12-29T01:21:08;9.50;99.90
7494;DHT22;3788;49.902;8.590;2023-12-29T01:23:35;9.50;99.90
7494;DHT22;3788;49.902;8.590;2023-12-29T01:26:02;9.50;99.90
7494;DHT22;3788;49.902;8.590;2023-12-29T01:28:28;9.50;99.90
7494;DHT22;3788;49.902;8.590;2023-12-29T01:30:56;9.50;99.90
7494;DHT22;3788;49.902;8.590;2023-12-29T01:33:23;9.60;99.90
7494;DHT22;3788;49.902;8.590;2023-12-29T01:35:50;9.60;99.90
7494;DHT22;3788;49.902;8.590;2023-12-29T01:38:16;9.60;99.90
7494;DHT22;3788;49.902;8.590;2023-12-29T01:40:43;9.60;99.90
7494;DHT22;3788;49.902;8.590;2023-12-29T01:43:11;9.70;99.90
7494;DHT22;3788;49.902;8.590;2023-12-29T01:45:37;9.70;99.90
7494;DHT22;3788;49.902;8.590;2023-12-29T01:48:06;9.60;99.90
7494;DHT22;3788;49.902;8.590;2023-12-29T01:50:34;9.60;99.90
7494;DHT22;3788;49.902;8.590;2023-12-29T01:53:01;9.60;99.90
7494;DHT22;3788;49.902;8.590;2023-12-29T01:55:30;9.50;99.90
7494;DHT22;3788;49.902;8.590;2023-12-29T01:57:58;9.50;99.90
7494;DHT22;3788;49.902;8.590;2023-12-29T02:00:25;9.50;99.90
7494;DHT22;3788;49.902;8.590;2023-12-29T02:02:53;9.40;99.90
7494;DHT22;3788;49.902;8.590;2023-12-29T02:05:21;9.40;99.90
7494;DHT22;3788;49.902;8.590;2023-12-29T02:07:51;9.40;99.90
7494;DHT22;3788;49.902;8.590;2023-12-29T02:10:18;9.40;99.90
7494;DHT22;3788;49.902;8.590;2023-12-29T02:12:46;9.40;99.90
7494;DHT22;3788;49.902;8.590;2023-12-29T02:15:13;9.40;99.90
7494;DHT22;3788;49.902;8.590;2023-12-29T02:17:43;9.50;99.90
7494;DHT22;3788;49.902;8.590;2023-12-29T02:20:12;9.40;99.90
7494;DHT22;3788;49.902;8.590;2023-12-29T02:22:40;9.40;99.90
7494;DHT22;3788;49.902;8.590;2023-12-29T02:25:08;9.40;99.90
7494;DHT22;3788;49.902;8.590;2023-12-29T02:27:43;9.40;99.90
7494;DHT22;3788;49.902;8.590;2023-12-29T02:30:18;9.50;99.90
7494;DHT22;3788;49.902;8.590;2023-12-29T02:32:47;9.50;99.90
7494;DHT22;3788;49.902;8.590;2023-12-29T02:35:28;9.50;99.90
7494;DHT22;3788;49.902;8.590;2023-12-29T02:37:58;9.50;99.90
7494;DHT22;3788;49.902;8.590;2023-12-29T02:40:30;9.50;99.90
7494;DHT22;3788;49.902;8.590;2023-12-29T02:42:58;9.50;99.90
7494;DHT22;3788;49.902;8.590;2023-12-29T02:45:25;9.50;99.90
7494;DHT22;3788;49.902;8.590;2023-12-29T02:47:52;9.50;99.90
7494;DHT22;3788;49.902;8.590;2023-12-29T02:50:19;9.40;99.90
7494;DHT22;3788;49.902;8.590;2023-12-29T02:52:46;9.40;99.90
7494;DHT22;3788;49.902;8.590;2023-12-29T02:55:13;9.40;99.90
7494;DHT22;3788;49.902;8.590;2023-12-29T02:57:41;9.40;99.90
7494;DHT22;3788;49.902;8.590;2023-12-29T03:00:08;9.40;99.90
7494;DHT22;3788;49.902;8.590;2023-12-29T03:02:35;9.40;99.90
7494;DHT22;3788;49.902;8.590;2023-12-29T03:05:02;9.40;99.90
7494;DHT22;3788;49.902;8.590;2023-12-29T03:07:28;9.40;99.90
7494;DHT22;3788;49.902;8.590;2023-12-29T03:09:55;9.40;99.90
7494;DHT22;3788;49.902;8.590;2023-12-29T03:12:22;9.40;99.90
7494;DHT22;3788;49.902;8.590;2023-12-29T03:14:50;9.40;99.90
7494;DHT22;3788;49.902;8.590;2023-12-29T03:17:16;9.40;99.90
7494;DHT22;3788;49.902;8.590;2023-12-29T03:19:43;9.50;99.90
7494;DHT22;3788;49.902;8.590;2023-12-29T03:22:10;9.50;99.90
7494;DHT22;3788;49.902;8.590;2023-12-29T03:24:40;9.50;99.90
7494;DHT22;3788;49.902;8.590;2023-12-29T03:27:07;9.50;99.90
7494;DHT22;3788;49.902;8.590;2023-12-29T03:29:34;9.50;99.90
7494;DHT22;3788;49.902;8.590;2023-12-29T03:32:02;9.50;99.90
7494;DHT22;3788;49.902;8.590;2023-12-29T03:34:29;9.40;99.90
7494;DHT22;3788;49.902;8.590;2023-12-29T03:36:56;9.40;99.90
7494;DHT22;3788;49.902;8.590;2023-12-29T03:39:22;9.40;99.90
7494;DHT22;3788;49.902;8.590;2023-12-29T03:41:49;9.30;99.90
7494;DHT22;3788;49.902;8.590;2023-12-29T03:44:16;9.30;99.90
7494;DHT22;3788;49.902;8.590;2023-12-29T03:46:43;9.30;99.90
7494;DHT22;3788;49.902;8.590;2023-12-29T03:49:11;9.20;99.90
7494;DHT22;3788;49.902;8.590;2023-12-29T03:51:38;9.20;99.90
7494;DHT22;3788;49.902;8.590;2023-12-29T03:54:05;9.20;99.90
7494;DHT22;3788;49.902;8.590;2023-12-29T03:56:32;9.10;99.90
7494;DHT22;3788;49.902;8.590;2023-12-29T03:58:58;9.20;99.90
7494;DHT22;3788;49.902;8.590;2023-12-29T04:01:25;9.10;99.90
7494;DHT22;3788;49.902;8.590;2023-12-29T04:03:53;9.20;99.90
7494;DHT22;3788;49.902;8.590;2023-12-29T04:06:21;9.20;99.90
7494;DHT22;3788;49.902;8.590;2023-12-29T04:08:47;9.30;99.90
7494;DHT22;3788;49.902;8.590;2023-12-29T04:11:14;9.30;99.90
7494;DHT22;3788;49.902;8.590;2023-12-29T04:13:41;9.30;99.90
7494;DHT22;3788;49.902;8.590;2023-12-29T04:16:07;9.30;99.90
7494;DHT22;3788;49.902;8.590;2023-12-29T04:18:34;9.20;99.90
7494;DHT22;3788;49.902;8.590;2023-12-29T04:21:01;9.30;99.90
7494;DHT22;3788;49.902;8.590;2023-12-29T04:23:29;9.30;99.90
7494;DHT22;3788;49.902;8.590;2023-12-29T04:25:56;9.30;99.90
7494;DHT22;3788;49.902;8.590;2023-12-29T04:28:22;9.30;99.90
7494;DHT22;3788;49.902;8.590;2023-12-29T04:30:49;9.30;99.90
7494;DHT22;3788;49.902;8.590;2023-12-29T04:33:16;9.30;99.90
7494;DHT22;3788;49.902;8.590;2023-12-29T04:35:42;9.40;99.90
7494;DHT22;3788;49.902;8.590;2023-12-29T04:38:09;9.30;99.90
7494;DHT22;3788;49.902;8.590;2023-12-29T04:40:37;9.30;99.90
7494;DHT22;3788;49.902;8.590;2023-12-29T04:43:04;9.30;99.90
7494;DHT22;3788;49.902;8.590;2023-12-29T04:45:31;9.30;99.90
7494;DHT22;3788;49.902;8.590;2023-12-29T04:47:57;9.30;99.90
7494;DHT22;3788;49.902;8.590;2023-12-29T04:50:24;9.30;99.90
7494;DHT22;3788;49.902;8.590;2023-12-29T04:52:50;9.30;99.90
7494;DHT22;3788;49.902;8.590;2023-12-29T04:55:17;9.20;99.90
7494;DHT22;3788;49.902;8.590;2023-12-29T04:57:45;9.20;99.90
7494;DHT22;3788;49.902;8.590;2023-12-29T05:00:13;9.20;99.90
7494;DHT22;3788;49.902;8.590;2023-12-29T05:02:40;9.20;99.90
7494;DHT22;3788;49.902;8.590;2023-12-29T05:05:07;9.20;99.90
7494;DHT22;3788;49.902;8.590;2023-12-29T05:07:33;9.20;99.90
7494;DHT22;3788;49.902;8.590;2023-12-29T05:10:00;9.20;99.90
7494;DHT22;3788;49.902;8.590;2023-12-29T05:12:27;9.20;99.90
7494;DHT22;3788;49.902;8.590;2023-12-29T05:14:55;9.20;99.90
7494;DHT22;3788;49.902;8.590;2023-12-29T05:17:22;9.20;99.90
7494;DHT22;3788;49.902;8.590;2023-12-29T05:19:48;9.20;99.90
7494;DHT22;3788;49.902;8.590;2023-12-29T05:22:15;9.20;99.90
7494;DHT22;3788;49.902;8.590;2023-12-29T05:24:43;9.30;99.90
7494;DHT22;3788;49.902;8.590;2023-12-29T05:27:10;9.30;99.90
7494;DHT22;3788;49.902;8.590;2023-12-29T05:29:37;9.30;99.90
7494;DHT22;3788;49.902;8.590;2023-12-29T05:32:06;9.30;99.90
7494;DHT22;3788;49.902;8.590;2023-12-29T05:34:32;9.30;99.90
7494;DHT22;3788;49.902;8.590;2023-12-29T05:36:59;9.30;99.90
7494;DHT22;3788;49.902;8.590;2023-12-29T05:39:25;9.30;99.90
7494;DHT22;3788;49.902;8.590;2023-12-29T05:41:52;9.30;99.90
7494;DHT22;3788;49.902;8.590;2023-12-29T05:44:19;9.40;99.90
7494;DHT22;3788;49.902;8.590;2023-12-29T05:46:46;9.40;99.90
7494;DHT22;3788;49.902;8.590;2023-12-29T05:49:14;9.40;99.90
7494;DHT22;3788;49.902;8.590;2023-12-29T05:51:41;9.40;99.90
7494;DHT22;3788;49.902;8.590;2023-12-29T05:54:07;9.40;99.90
7494;DHT22;3788;49.902;8.590;2023-12-29T05:56:34;9.40;99.90
7494;DHT22;3788;49.902;8.590;2023-12-29T05:59:01;9.40;99.90
7494;DHT22;3788;49.902;8.590;2023-12-29T06:01:28;9.40;99.90
7494;DHT22;3788;49.902;8.590;2023-12-29T06:03:54;9.40;99.90
7494;DHT22;3788;49.902;8.590;2023-12-29T06:06:22;9.40;99.90
7494;DHT22;3788;49.902;8.590;2023-12-29T06:08:49;9.40;99.90
7494;DHT22;3788;49.902;8.590;2023-12-29T06:11:16;9.40;99.90
7494;DHT22;3788;49.902;8.590;2023-12-29T06:13:42;9.40;99.90
7494;DHT22;3788;49.902;8.590;2023-12-29T06:16:09;9.40;99.90
7494;DHT22;3788;49.902;8.590;2023-12-29T06:18:36;9.40;99.90
7494;DHT22;3788;49.902;8.590;2023-12-29T06:21:02;9.50;99.90
7494;DHT22;3788;49.902;8.590;2023-12-29T06:23:30;9.50;99.90
7494;DHT22;3788;49.902;8.590;2023-12-29T06:25:57;9.50;99.90
7494;DHT22;3788;49.902;8.590;2023-12-29T06:28:24;9.60;99.90
7494;DHT22;3788;49.902;8.590;2023-12-29T06:30:50;9.60;99.90
7494;DHT22;3788;49.902;8.590;2023-12-29T06:33:17;9.60;99.90
7494;DHT22;3788;49.902;8.590;2023-12-29T06:35:46;9.70;99.90
7494;DHT22;3788;49.902;8.590;2023-12-29T06:38:13;9.70;99.90
7494;DHT22;3788;49.902;8.590;2023-12-29T06:40:41;9.70;99.90
7494;DHT22;3788;49.902;8.590;2023-12-29T06:43:07;9.80;99.90
7494;DHT22;3788;49.902;8.590;2023-12-29T06:45:34;9.80;99.90
7494;DHT22;3788;49.902;8.590;2023-12-29T06:48:00;9.90;99.90
7494;DHT22;3788;49.902;8.590;2023-12-29T06:50:27;9.90;99.90
7494;DHT22;3788;49.902;8.590;2023-12-29T06:52:54;9.90;99.90
7494;DHT22;3788;49.902;8.590;2023-12-29T06:55:20;10.00;99.90
7494;DHT22;3788;49.902;8.590;2023-12-29T06:57:48;10.00;99.90
7494;DHT22;3788;49.902;8.590;2023-12-29T07:00:15;10.00;99.90
7494;DHT22;3788;49.902;8.590;2023-12-29T07:02:42;10.00;99.90
7494;DHT22;3788;49.902;8.590;2023-12-29T07:05:09;10.10;99.90
7494;DHT22;3788;49.902;8.590;2023-12-29T07:07:35;10.10;99.90
7494;DHT22;3788;49.902;8.590;2023-12-29T07:10:03;10.10;99.90
7494;DHT22;3788;49.902;8.590;2023-12-29T07:12:31;10.10;99.90
7494;DHT22;3788;49.902;8.590;2023-12-29T07:14:59;10.10;99.90
7494;DHT22;3788;49.902;8.590;2023-12-29T07:17:26;10.10;99.90
7494;DHT22;3788;49.902;8.590;2023-12-29T07:19:52;10.10;99.90
7494;DHT22;3788;49.902;8.590;2023-12-29T07:22:19;10.10;99.90
7494;DHT22;3788;49.902;8.590;2023-12-29T07:24:45;10.10;99.90
7494;DHT22;3788;49.902;8.590;2023-12-29T07:27:12;10.10;99.90
7494;DHT22;3788;49.902;8.590;2023-12-29T07:29:39;10.10;99.90
7494;DHT22;3788;49.902;8.590;2023-12-29T07:32:07;10.20;99.90
7494;DHT22;3788;49.902;8.590;2023-12-29T07:34:34;10.20;99.90
7494;DHT22;3788;49.902;8.590;2023-12-29T07:37:00;10.20;99.90
7494;DHT22;3788;49.902;8.590;2023-12-29T07:39:28;10.20;99.90
7494;DHT22;3788;49.902;8.590;2023-12-29T07:41:54;10.20;99.90
7494;DHT22;3788;49.902;8.590;2023-12-29T07:44:21;10.20;99.90
7494;DHT22;3788;49.902;8.590;2023-12-29T07:46:48;10.20;99.90
7494;DHT22;3788;49.902;8.590;2023-12-29T07:49:16;10.20;99.90
7494;DHT22;3788;49.902;8.590;2023-12-29T07:51:46;10.20;99.90
7494;DHT22;3788;49.902;8.590;2023-12-29T07:54:13;10.30;99.90
7494;DHT22;3788;49.902;8.590;2023-12-29T07:56:39;10.30;99.90
7494;DHT22;3788;49.902;8.590;2023-12-29T07:59:06;10.30;99.90
7494;DHT22;3788;49.902;8.590;2023-12-29T08:01:32;10.40;99.90
7494;DHT22;3788;49.902;8.590;2023-12-29T08:03:59;10.40;99.90
7494;DHT22;3788;49.902;8.590;2023-12-29T08:06:27;10.40;99.90
7494;DHT22;3788;49.902;8.590;2023-12-29T08:08:54;10.50;99.90
7494;DHT22;3788;49.902;8.590;2023-12-29T08:11:21;10.50;99.90
7494;DHT22;3788;49.902;8.590;2023-12-29T08:13:48;10.50;99.90
7494;DHT22;3788;49.902;8.590;2023-12-29T08:16:15;10.50;99.90
7494;DHT22;3788;49.902;8.590;2023-12-29T08:18:44;10.50;99.90
7494;DHT22;3788;49.902;8.590;2023-12-29T08:21:16;10.50;99.90
7494;DHT22;3788;49.902;8.590;2023-12-29T08:23:45;10.60;99.90
7494;DHT22;3788;49.902;8.590;2023-12-29T08:26:11;10.60;99.90
7494;DHT22;3788;49.902;8.590;2023-12-29T08:28:38;10.60;99.90
7494;DHT22;3788;49.902;8.590;2023-12-29T08:31:05;10.60;99.90
7494;DHT22;3788;49.902;8.590;2023-12-29T08:33:32;10.70;99.90
7494;DHT22;3788;49.902;8.590;2023-12-29T08:35:58;10.70;99.90
7494;DHT22;3788;49.902;8.590;2023-12-29T08:38:26;10.70;99.90
7494;DHT22;3788;49.902;8.590;2023-12-29T08:40:54;10.70;99.90
7494;DHT22;3788;49.902;8.590;2023-12-29T08:43:21;10.70;99.90
7494;DHT22;3788;49.902;8.590;2023-12-29T08:45:48;10.80;99.90
7494;DHT22;3788;49.902;8.590;2023-12-29T08:48:14;10.70;99.90
7494;DHT22;3788;49.902;8.590;2023-12-29T08:50:41;10.70;99.90
7494;DHT22;3788;49.902;8.590;2023-12-29T08:53:08;10.80;99.90
7494;DHT22;3788;49.902;8.590;2023-12-29T08:55:35;10.80;99.90
7494;DHT22;3788;49.902;8.590;2023-12-29T08:58:03;10.80;99.90
7494;DHT22;3788;49.902;8.590;2023-12-29T09:00:30;10.80;99.90
7494;DHT22;3788;49.902;8.590;2023-12-29T09:02:56;10.80;99.90
7494;DHT22;3788;49.902;8.590;2023-12-29T09:05:23;10.80;99.90
7494;DHT22;3788;49.902;8.590;2023-12-29T09:07:50;10.80;99.90
7494;DHT22;3788;49.902;8.590;2023-12-29T09:10:17;10.80;99.90
7494;DHT22;3788;49.902;8.590;2023-12-29T09:12:43;10.80;99.90
7494;DHT22;3788;49.902;8.590;2023-12-29T09:15:12;10.90;99.90
7494;DHT22;3788;49.902;8.590;2023-12-29T09:17:39;10.90;99.90
7494;DHT22;3788;49.902;8.590;2023-12-29T09:20:06;10.90;99.90
7494;DHT22;3788;49.902;8.590;2023-12-29T09:22:33;11.00;99.90
7494;DHT22;3788;49.902;8.590;2023-12-29T09:25:00;11.00;99.90
7494;DHT22;3788;49.902;8.590;2023-12-29T09:27:27;10.90;99.90
7494;DHT22;3788;49.902;8.590;2023-12-29T09:29:54;11.00;99.90
7494;DHT22;3788;49.902;8.590;2023-12-29T09:32:22;11.00;99.90
7494;DHT22;3788;49.902;8.590;2023-12-29T09:34:48;11.00;99.90
7494;DHT22;3788;49.902;8.590;2023-12-29T09:37:15;11.00;99.90
7494;DHT22;3788;49.902;8.590;2023-12-29T09:39:41;11.00;99.90
7494;DHT22;3788;49.902;8.590;2023-12-29T09:42:09;11.10;99.90
7494;DHT22;3788;49.902;8.590;2023-12-29T09:44:39;11.20;99.90
7494;DHT22;3788;49.902;8.590;2023-12-29T09:47:09;11.20;99.90
7494;DHT22;3788;49.902;8.590;2023-12-29T09:49:39;11.20;99.90
7494;DHT22;3788;49.902;8.590;2023-12-29T09:52:07;11.30;99.90
7494;DHT22;3788;49.902;8.590;2023-12-29T09:54:35;11.30;99.90
7494;DHT22;3788;49.902;8.590;2023-12-29T09:57:04;11.30;99.90
7494;DHT22;3788;49.902;8.590;2023-12-29T09:59:32;11.40;99.90
7494;DHT22;3788;49.902;8.590;2023-12-29T10:02:02;11.40;99.90
7494;DHT22;3788;49.902;8.590;2023-12-29T10:04:29;11.40;99.90
7494;DHT22;3788;49.902;8.590;2023-12-29T10:07:01;11.50;99.90
7494;DHT22;3788;49.902;8.590;2023-12-29T10:09:33;11.50;99.90
7494;DHT22;3788;49.902;8.590;2023-12-29T10:12:02;11.50;99.90
7494;DHT22;3788;49.902;8.590;2023-12-29T10:14:35;11.60;99.90
7494;DHT22;3788;49.902;8.590;2023-12-29T10:17:08;11.60;99.90
7494;DHT22;3788;49.902;8.590;2023-12-29T10:19:39;11.60;99.90
7494;DHT22;3788;49.902;8.590;2023-12-29T10:22:11;11.70;99.90
7494;DHT22;3788;49.902;8.590;2023-12-29T10:24:42;11.70;99.90
7494;DHT22;3788;49.902;8.590;2023-12-29T10:27:11;11.80;99.90
7494;DHT22;3788;49.902;8.590;2023-12-29T10:29:38;11.70;99.90
7494;DHT22;3788;49.902;8.590;2023-12-29T10:32:05;11.80;99.90
7494;DHT22;3788;49.902;8.590;2023-12-29T10:34:32;11.80;99.90
7494;DHT22;3788;49.902;8.590;2023-12-29T10:36:59;11.80;99.90
7494;DHT22;3788;49.902;8.590;2023-12-29T10:39:28;11.80;99.90
7494;DHT22;3788;49.902;8.590;2023-12-29T10:42:03;11.80;99.90
7494;DHT22;3788;49.902;8.590;2023-12-29T10:44:31;11.80;99.90
7494;DHT22;3788;49.902;8.590;2023-12-29T10:46:58;11.80;99.90
7494;DHT22;3788;49.902;8.590;2023-12-29T10:49:25;11.80;99.90
7494;DHT22;3788;49.902;8.590;2023-12-29T10:51:52;11.80;99.90
7494;DHT22;3788;49.902;8.590;2023-12-29T10:54:20;11.80;99.90
7494;DHT22;3788;49.902;8.590;2023-12-29T10:57:00;11.70;99.90
7494;DHT22;3788;49.902;8.590;2023-12-29T10:59:28;11.80;99.90
7494;DHT22;3788;49.902;8.590;2023-12-29T11:01:55;11.70;99.90
7494;DHT22;3788;49.902;8.590;2023-12-29T11:04:23;11.80;99.90
7494;DHT22;3788;49.902;8.590;2023-12-29T11:06:50;11.80;99.90
7494;DHT22;3788;49.902;8.590;2023-12-29T11:09:27;11.80;99.90
7494;DHT22;3788;49.902;8.590;2023-12-29T11:11:56;11.80;99.90
7494;DHT22;3788;49.902;8.590;2023-12-29T11:14:24;11.80;99.90
7494;DHT22;3788;49.902;8.590;2023-12-29T11:16:52;11.80;99.90
7494;DHT22;3788;49.902;8.590;2023-12-29T11:19:21;11.70;99.90
7494;DHT22;3788;49.902;8.590;2023-12-29T11:21:49;11.70;99.90
7494;DHT22;3788;49.902;8.590;2023-12-29T11:24:17;11.70;99.90
7494;DHT22;3788;49.902;8.590;2023-12-29T11:26:44;11.70;99.90
7494;DHT22;3788;49.902;8.590;2023-12-29T11:29:12;11.70;99.90
7494;DHT22;3788;49.902;8.590;2023-12-29T11:31:39;11.70;99.90
7494;DHT22;3788;49.902;8.590;2023-12-29T11:34:10;11.70;99.90
7494;DHT22;3788;49.902;8.590;2023-12-29T11:36:43;11.80;99.90
7494;DHT22;3788;49.902;8.590;2023-12-29T11:39:17;11.80;99.90
7494;DHT22;3788;49.902;8.590;2023-12-29T11:41:54;11.80;99.90
7494;DHT22;3788;49.902;8.590;2023-12-29T11:44:28;11.80;99.90
7494;DHT22;3788;49.902;8.590;2023-12-29T11:46:56;11.80;99.90
7494;DHT22;3788;49.902;8.590;2023-12-29T11:49:23;11.90;99.90
7494;DHT22;3788;49.902;8.590;2023-12-29T11:51:50;11.90;99.90
7494;DHT22;3788;49.902;8.590;2023-12-29T11:54:22;12.00;99.90
7494;DHT22;3788;49.902;8.590;2023-12-29T11:56:49;12.00;99.90
7494;DHT22;3788;49.902;8.590;2023-12-29T11:59:17;12.00;99.90
7494;DHT22;3788;49.902;8.590;2023-12-29T12:01:48;12.10;99.90
7494;DHT22;3788;49.902;8.590;2023-12-29T12:04:42;12.10;99.90
7494;DHT22;3788;49.902;8.590;2023-12-29T12:07:15;12.10;99.90
7494;DHT22;3788;49.902;8.590;2023-12-29T12:09:42;12.10;99.90
7494;DHT22;3788;49.902;8.590;2023-12-29T12:12:09;12.10;99.90
7494;DHT22;3788;49.902;8.590;2023-12-29T12:14:52;12.10;99.90
7494;DHT22;3788;49.902;8.590;2023-12-29T12:17:31;12.20;99.90
7494;DHT22;3788;49.902;8.590;2023-12-29T12:19:58;12.20;99.80
7494;DHT22;3788;49.902;8.590;2023-12-29T12:22:25;12.20;99.80
7494;DHT22;3788;49.902;8.590;2023-12-29T12:24:56;12.20;99.90
7494;DHT22;3788;49.902;8.590;2023-12-29T12:27:24;12.20;99.80
7494;DHT22;3788;49.902;8.590;2023-12-29T12:29:53;12.20;99.90
7494;DHT22;3788;49.902;8.590;2023-12-29T12:32:22;12.10;99.90
7494;DHT22;3788;49.902;8.590;2023-12-29T12:34:50;12.10;99.90
7494;DHT22;3788;49.902;8.590;2023-12-29T12:37:21;12.10;99.90
7494;DHT22;3788;49.902;8.590;2023-12-29T12:39:48;12.10;99.90
7494;DHT22;3788;49.902;8.590;2023-12-29T12:42:15;12.10;99.80
7494;DHT22;3788;49.902;8.590;2023-12-29T12:44:56;12.20;99.90
7494;DHT22;3788;49.902;8.590;2023-12-29T12:47:27;12.20;99.90
7494;DHT22;3788;49.902;8.590;2023-12-29T12:49:56;12.20;99.90
7494;DHT22;3788;49.902;8.590;2023-12-29T12:52:22;12.30;99.80
7494;DHT22;3788;49.902;8.590;2023-12-29T12:54:49;12.30;99.70
7494;DHT22;3788;49.902;8.590;2023-12-29T12:57:19;12.30;99.80
7494;DHT22;3788;49.902;8.590;2023-12-29T12:59:47;12.30;99.80
7494;DHT22;3788;49.902;8.590;2023-12-29T13:02:15;12.30;99.80
7494;DHT22;3788;49.902;8.590;2023-12-29T13:04:42;12.30;99.80
7494;DHT22;3788;49.902;8.590;2023-12-29T13:07:10;12.40;99.90
7494;DHT22;3788;49.902;8.590;2023-12-29T13:09:41;12.40;99.90
7494;DHT22;3788;49.902;8.590;2023-12-29T13:12:09;12.30;99.90
7494;DHT22;3788;49.902;8.590;2023-12-29T13:14:35;12.30;99.80
7494;DHT22;3788;49.902;8.590;2023-12-29T13:17:06;12.30;99.70
7494;DHT22;3788;49.902;8.590;2023-12-29T13:19:33;12.30;99.90
7494;DHT22;3788;49.902;8.590;2023-12-29T13:22:00;12.30;99.90
7494;DHT22;3788;49.902;8.590;2023-12-29T13:24:29;12.30;99.90
7494;DHT22;3788;49.902;8.590;2023-12-29T13:27:02;12.30;99.90
7494;DHT22;3788;49.902;8.590;2023-12-29T13:29:30;12.30;99.90
7494;DHT22;3788;49.902;8.590;2023-12-29T13:32:02;12.20;99.90
7494;DHT22;3788;49.902;8.590;2023-12-29T13:34:35;12.20;99.90
7494;DHT22;3788;49.902;8.590;2023-12-29T13:37:06;12.20;99.90
7494;DHT22;3788;49.902;8.590;2023-12-29T13:39:39;12.20;99.90
7494;DHT22;3788;49.902;8.590;2023-12-29T13:42:09;12.20;99.90
7494;DHT22;3788;49.902;8.590;2023-12-29T13:44:39;12.20;99.90
7494;DHT22;3788;49.902;8.590;2023-12-29T13:47:08;12.10;99.90
7494;DHT22;3788;49.902;8.590;2023-12-29T13:49:35;12.10;99.90
7494;DHT22;3788;49.902;8.590;2023-12-29T13:52:03;12.10;99.90
7494;DHT22;3788;49.902;8.590;2023-12-29T13:54:30;12.00;99.90
7494;DHT22;3788;49.902;8.590;2023-12-29T13:56:58;12.00;99.90
7494;DHT22;3788;49.902;8.590;2023-12-29T13:59:31;12.00;99.90
7494;DHT22;3788;49.902;8.590;2023-12-29T14:01:59;11.90;99.90
7494;DHT22;3788;49.902;8.590;2023-12-29T14:04:25;11.90;99.90
7494;DHT22;3788;49.902;8.590;2023-12-29T14:06:58;11.90;99.90
7494;DHT22;3788;49.902;8.590;2023-12-29T14:09:26;11.90;99.90
7494;DHT22;3788;49.902;8.590;2023-12-29T14:11:53;11.90;99.90
7494;DHT22;3788;49.902;8.590;2023-12-29T14:14:24;11.90;99.90
7494;DHT22;3788;49.902;8.590;2023-12-29T14:16:52;11.90;99.90
7494;DHT22;3788;49.902;8.590;2023-12-29T14:19:19;11.80;99.90
7494;DHT22;3788;49.902;8.590;2023-12-29T14:21:48;11.80;99.90
7494;DHT22;3788;49.902;8.590;2023-12-29T14:24:16;11.80;99.90
7494;DHT22;3788;49.902;8.590;2023-12-29T14:26:53;11.80;99.90
7494;DHT22;3788;49.902;8.590;2023-12-29T14:29:22;11.80;99.90
7494;DHT22;3788;49.902;8.590;2023-12-29T14:31:50;11.70;99.90
7494;DHT22;3788;49.902;8.590;2023-12-29T14:34:18;11.70;99.90
7494;DHT22;3788;49.902;8.590;2023-12-29T14:36:45;11.70;99.90
7494;DHT22;3788;49.902;8.590;2023-12-29T14:39:12;11.70;99.90
7494;DHT22;3788;49.902;8.590;2023-12-29T14:41:40;11.60;99.90
7494;DHT22;3788;49.902;8.590;2023-12-29T14:44:07;11.60;99.90
7494;DHT22;3788;49.902;8.590;2023-12-29T14:46:35;11.60;99.90
7494;DHT22;3788;49.902;8.590;2023-12-29T14:49:03;11.60;99.90
7494;DHT22;3788;49.902;8.590;2023-12-29T14:51:30;11.60;99.90
7494;DHT22;3788;49.902;8.590;2023-12-29T14:53:57;11.50;99.90
7494;DHT22;3788;49.902;8.590;2023-12-29T14:56:23;11.50;99.90
7494;DHT22;3788;49.902;8.590;2023-12-29T14:58:50;11.50;99.90
7494;DHT22;3788;49.902;8.590;2023-12-29T15:01:17;11.50;99.90
7494;DHT22;3788;49.902;8.590;2023-12-29T15:03:44;11.50;99.90
7494;DHT22;3788;49.902;8.590;2023-12-29T15:06:12;11.50;99.90
7494;DHT22;3788;49.902;8.590;2023-12-29T15:08:39;11.50;99.90
7494;DHT22;3788;49.902;8.590;2023-12-29T15:11:06;11.50;99.90
7494;DHT22;3788;49.902;8.590;2023-12-29T15:13:33;11.50;99.90
7494;DHT22;3788;49.902;8.590;2023-12-29T15:16:01;11.40;99.90
7494;DHT22;3788;49.902;8.590;2023-12-29T15:18:29;11.40;99.90
7494;DHT22;3788;49.902;8.590;2023-12-29T15:20:56;11.40;99.90
7494;DHT22;3788;49.902;8.590;2023-12-29T15:23:24;11.30;99.90
7494;DHT22;3788;49.902;8.590;2023-12-29T15:25:53;11.30;99.90
7494;DHT22;3788;49.902;8.590;2023-12-29T15:28:20;11.30;99.90
7494;DHT22;3788;49.902;8.590;2023-12-29T15:30:47;11.30;99.90
7494;DHT22;3788;49.902;8.590;2023-12-29T15:33:15;11.20;99.90
7494;DHT22;3788;49.902;8.590;2023-12-29T15:35:42;11.20;99.90
7494;DHT22;3788;49.902;8.590;2023-12-29T15:38:09;11.20;99.90
7494;DHT22;3788;49.902;8.590;2023-12-29T15:40:37;11.30;99.90
7494;DHT22;3788;49.902;8.590;2023-12-29T15:43:04;11.30;99.90
7494;DHT22;3788;49.902;8.590;2023-12-29T15:45:33;11.30;99.90
7494;DHT22;3788;49.902;8.590;2023-12-29T15:48:00;11.30;99.90
7494;DHT22;3788;49.902;8.590;2023-12-29T15:50:27;11.20;99.90
7494;DHT22;3788;49.902;8.590;2023-12-29T15:52:53;11.30;99.90
7494;DHT22;3788;49.902;8.590;2023-12-29T15:55:20;11.20;99.90
7494;DHT22;3788;49.902;8.590;2023-12-29T15:57:48;11.20;99.90
7494;DHT22;3788;49.902;8.590;2023-12-29T16:00:16;11.20;99.90
7494;DHT22;3788;49.902;8.590;2023-12-29T16:02:43;11.10;99.90
7494;DHT22;3788;49.902;8.590;2023-12-29T16:05:10;11.10;99.90
7494;DHT22;3788;49.902;8.590;2023-12-29T16:07:37;11.10;99.90
7494;DHT22;3788;49.902;8.590;2023-12-29T16:10:04;11.10;99.90
7494;DHT22;3788;49.902;8.590;2023-12-29T16:12:33;11.10;99.90